createdAt,value
2022-10-06T00:00:53.555Z,101062.22
2022-10-06T00:01:55.589Z,101061.44
2022-10-06T00:02:58.714Z,101083.78
2022-10-06T00:04:00.857Z,101074.66
2022-10-06T00:05:04.347Z,101081.78
2022-10-06T00:06:07.353Z,101063.16
2022-10-06T00:07:10.401Z,101075.69
2022-10-06T00:08:12.492Z,101074.91
2022-10-06T00:09:15.562Z,101075.09
2022-10-06T00:10:18.366Z,101082.16
2022-10-06T00:11:22.846Z,101075.09
2022-10-06T00:12:24.877Z,101079.47
2022-10-06T00:13:29.026Z,101075.94
2022-10-06T00:14:31.068Z,101079.47
2022-10-06T00:15:34.690Z,101091.28
2022-10-06T00:16:36.822Z,101088.22
2022-10-06T00:17:39.897Z,101093.97
2022-10-06T00:18:42.074Z,101104.19
2022-10-06T00:19:45.110Z,101092.56
2022-10-06T00:20:54.410Z,101101.72
2022-10-06T00:21:57.468Z,101095.50
2022-10-06T00:22:59.584Z,101096.50
2022-10-06T00:24:02.683Z,101108.34
2022-10-06T00:25:05.730Z,101099.66
2022-10-06T00:26:12.278Z,101098.88
2022-10-06T00:27:15.851Z,101093.69
2022-10-06T00:28:19.130Z,101107.16
2022-10-06T00:29:21.234Z,101102.81
2022-10-06T00:30:26.175Z,101104.69
2022-10-06T00:31:28.324Z,101101.41
2022-10-06T00:32:31.449Z,101109.50
2022-10-06T00:33:33.506Z,101108.66
2022-10-06T00:34:36.680Z,101107.00
2022-10-06T00:35:38.772Z,101118.84
2022-10-06T00:36:41.829Z,101125.28
2022-10-06T00:37:43.908Z,101117.22
2022-10-06T00:38:47.182Z,101115.53
2022-10-06T00:39:49.274Z,101117.44
2022-10-06T00:40:53.416Z,101111.22
2022-10-06T00:41:55.464Z,101115.16
2022-10-06T00:43:02.904Z,101106.13
2022-10-06T00:44:04.980Z,101121.38
2022-10-06T00:45:09.661Z,101127.84
2022-10-06T00:46:16.929Z,101129.69
2022-10-06T00:47:23.821Z,101125.38
2022-10-06T00:48:27.578Z,101128.25
2022-10-06T00:49:36.738Z,101126.41
2022-10-06T00:50:39.723Z,101127.69
2022-10-06T00:51:46.182Z,101145.94
2022-10-06T00:52:48.381Z,101124.38
2022-10-06T00:53:51.804Z,101122.72
2022-10-06T00:54:55.071Z,101136.41
2022-10-06T00:55:57.436Z,101130.22
2022-10-06T00:57:00.584Z,101127.97
2022-10-06T00:58:06.541Z,101132.31
2022-10-06T00:59:15.186Z,101141.41
2022-10-06T01:00:17.487Z,101139.78
2022-10-06T01:01:20.901Z,101143.53
2022-10-06T01:02:26.580Z,101138.38
2022-10-06T01:03:32.928Z,101139.03
2022-10-06T01:04:40.649Z,101138.41
2022-10-06T01:05:48.617Z,101142.41
2022-10-06T01:06:54.165Z,101148.22
2022-10-06T01:07:57.619Z,101157.56
2022-10-06T01:09:00.741Z,101154.25
2022-10-06T01:10:03.252Z,101154.50
2022-10-06T01:11:06.637Z,101150.38
2022-10-06T01:12:09.580Z,101142.53
2022-10-06T01:13:15.346Z,101150.00
2022-10-06T01:14:19.810Z,101147.75
2022-10-06T01:15:23.543Z,101151.69
2022-10-06T01:16:27.095Z,101156.47
2022-10-06T01:17:36.822Z,101149.50
2022-10-06T01:18:40.592Z,101151.97
2022-10-06T01:19:51.163Z,101152.88
2022-10-06T01:20:59.875Z,101155.56
2022-10-06T01:22:05.927Z,101154.94
2022-10-06T01:23:12.227Z,101160.78
2022-10-06T01:24:17.499Z,101162.88
2022-10-06T01:25:20.953Z,101169.72
2022-10-06T01:26:26.081Z,101168.91
2022-10-06T01:27:30.865Z,101167.25
2022-10-06T01:28:34.334Z,101175.53
2022-10-06T01:29:37.227Z,101179.50
2022-10-06T01:30:46.060Z,101186.75
2022-10-06T01:31:50.229Z,101179.91
2022-10-06T01:32:52.527Z,101178.50
2022-10-06T01:33:57.919Z,101188.66
2022-10-06T01:35:00.053Z,101182.63
2022-10-06T01:36:04.671Z,101177.25
2022-10-06T01:37:06.826Z,101177.69
2022-10-06T01:38:10.152Z,101181.44
2022-10-06T01:39:13.582Z,101182.44
2022-10-06T01:40:16.975Z,101182.66
2022-10-06T01:41:21.750Z,101176.69
2022-10-06T01:42:25.617Z,101177.72
2022-10-06T01:43:27.739Z,101184.97
2022-10-06T01:44:30.835Z,101198.63
2022-10-06T01:45:32.888Z,101191.84
2022-10-06T01:46:36.043Z,101191.84
2022-10-06T01:47:38.170Z,101193.91
2022-10-06T01:48:41.218Z,101209.44
2022-10-06T01:49:44.176Z,101209.44
2022-10-06T01:50:47.605Z,101214.19
2022-10-06T01:51:50.345Z,101210.72
2022-10-06T01:52:55.955Z,101208.22
2022-10-06T01:53:58.043Z,101213.81
2022-10-06T01:55:02.652Z,101222.91
2022-10-06T01:56:06.045Z,101211.31
2022-10-06T01:57:09.516Z,101227.91
2022-10-06T01:58:12.864Z,101232.44
2022-10-06T01:59:16.577Z,101229.97
2022-10-06T02:00:20.129Z,101220.69
2022-10-06T02:01:24.198Z,101227.50
2022-10-06T02:02:30.645Z,101241.16
2022-10-06T02:03:36.140Z,101240.31
2022-10-06T02:04:38.227Z,101237.84
2022-10-06T02:05:41.254Z,101241.59
2022-10-06T02:06:43.509Z,101235.59
2022-10-06T02:07:46.667Z,101237.47
2022-10-06T02:08:50.754Z,101229.59
2022-10-06T02:09:54.409Z,101248.44
2022-10-06T02:10:58.000Z,101244.09
2022-10-06T02:12:02.754Z,101245.97
2022-10-06T02:13:05.217Z,101254.03
2022-10-06T02:14:09.814Z,101254.22
2022-10-06T02:15:11.875Z,101256.09
2022-10-06T02:16:15.215Z,101254.44
2022-10-06T02:17:18.423Z,101259.81
2022-10-06T02:18:21.468Z,101259.00
2022-10-06T02:19:24.210Z,101262.13
2022-10-06T02:20:27.265Z,101260.25
2022-10-06T02:21:29.320Z,101266.44
2022-10-06T02:22:32.413Z,101261.06
2022-10-06T02:23:34.570Z,101271.63
2022-10-06T02:24:38.421Z,101271.63
2022-10-06T02:25:40.471Z,101266.44
2022-10-06T02:26:44.869Z,101270.38
2022-10-06T02:27:47.584Z,101276.38
2022-10-06T02:28:50.993Z,101283.38
2022-10-06T02:29:56.851Z,101282.16
2022-10-06T02:31:02.696Z,101285.03
2022-10-06T02:32:05.190Z,101287.94
2022-10-06T02:33:08.258Z,101289.56
2022-10-06T02:34:10.374Z,101286.66
2022-10-06T02:35:14.230Z,101289.97
2022-10-06T02:36:18.046Z,101292.44
2022-10-06T02:37:21.773Z,101304.03
2022-10-06T02:38:24.218Z,101302.78
2022-10-06T02:39:27.307Z,101303.19
2022-10-06T02:40:29.391Z,101304.47
2022-10-06T02:41:32.739Z,101301.56
2022-10-06T02:42:37.559Z,101316.03
2022-10-06T02:43:41.616Z,101315.22
2022-10-06T02:44:43.707Z,101325.13
2022-10-06T02:45:56.001Z,101323.47
2022-10-06T02:47:00.545Z,101305.94
2022-10-06T02:48:02.618Z,101326.16
2022-10-06T02:49:06.426Z,101332.38
2022-10-06T02:50:10.003Z,101328.03
2022-10-06T02:51:15.655Z,101333.63
2022-10-06T02:52:18.751Z,101338.19
2022-10-06T02:53:21.804Z,101337.56
2022-10-06T02:54:24.497Z,101340.47
2022-10-06T02:55:27.705Z,101342.53
2022-10-06T02:56:29.778Z,101344.59
2022-10-06T02:57:33.315Z,101336.75
2022-10-06T02:58:39.536Z,101338.84
2022-10-06T02:59:45.560Z,101340.91
2022-10-06T03:00:47.616Z,101341.94
2022-10-06T03:01:50.842Z,101337.81
2022-10-06T03:02:54.093Z,101344.19
2022-10-06T03:03:57.404Z,101353.53
2022-10-06T03:04:59.582Z,101352.06
2022-10-06T03:06:03.697Z,101359.53
2022-10-06T03:07:07.008Z,101357.88
2022-10-06T03:08:13.311Z,101362.63
2022-10-06T03:09:15.479Z,101359.34
2022-10-06T03:10:19.832Z,101359.56
2022-10-06T03:11:24.148Z,101357.88
2022-10-06T03:12:27.388Z,101362.41
2022-10-06T03:13:30.675Z,101366.16
2022-10-06T03:14:35.181Z,101372.59
2022-10-06T03:15:38.091Z,101381.44
2022-10-06T03:16:43.362Z,101370.28
2022-10-06T03:17:52.536Z,101368.22
2022-10-06T03:18:56.400Z,101363.28
2022-10-06T03:19:59.454Z,101378.16
2022-10-06T03:21:02.215Z,101391.59
2022-10-06T03:22:06.213Z,101383.13
2022-10-06T03:23:17.511Z,101386.41
2022-10-06T03:24:20.626Z,101399.66
2022-10-06T03:25:26.900Z,101392.84
2022-10-06T03:26:32.848Z,101390.34
2022-10-06T03:27:35.109Z,101393.03
2022-10-06T03:28:40.620Z,101391.41
2022-10-06T03:29:44.989Z,101397.59
2022-10-06T03:30:48.382Z,101405.00
2022-10-06T03:31:51.869Z,101410.38
2022-10-06T03:32:54.936Z,101390.34
2022-10-06T03:33:57.820Z,101404.41
2022-10-06T03:35:03.453Z,101401.94
2022-10-06T03:36:08.737Z,101400.47
2022-10-06T03:37:10.867Z,101405.84
2022-10-06T03:38:14.618Z,101407.91
2022-10-06T03:39:16.739Z,101406.28
2022-10-06T03:40:19.832Z,101406.47
2022-10-06T03:41:24.842Z,101406.91
2022-10-06T03:42:28.189Z,101420.34
2022-10-06T03:43:30.484Z,101395.53
2022-10-06T03:44:35.069Z,101419.91
2022-10-06T03:45:39.158Z,101421.13
2022-10-06T03:46:42.604Z,101425.66
2022-10-06T03:47:45.981Z,101422.38
2022-10-06T03:48:50.896Z,101426.09
2022-10-06T03:49:53.121Z,101432.28
2022-10-06T03:50:57.242Z,101432.50
2022-10-06T03:51:59.264Z,101428.16
2022-10-06T03:53:07.732Z,101440.78
2022-10-06T03:54:11.012Z,101432.91
2022-10-06T03:55:15.529Z,101433.94
2022-10-06T03:56:20.523Z,101438.69
2022-10-06T03:57:23.623Z,101442.41
2022-10-06T03:58:26.243Z,101440.75
2022-10-06T03:59:34.146Z,101434.75
2022-10-06T04:00:39.007Z,101450.88
2022-10-06T04:01:44.076Z,101446.50
2022-10-06T04:02:49.846Z,101458.31
2022-10-06T04:03:54.119Z,101449.63
2022-10-06T04:04:56.437Z,101460.16
2022-10-06T04:06:02.351Z,101463.03
2022-10-06T04:07:04.449Z,101458.72
2022-10-06T04:08:07.788Z,101469.47
2022-10-06T04:09:15.208Z,101461.81
2022-10-06T04:10:19.190Z,101464.50
2022-10-06T04:11:23.877Z,101473.56
2022-10-06T04:12:27.386Z,101479.97
2022-10-06T04:13:29.648Z,101481.81
2022-10-06T04:14:32.784Z,101475.63
2022-10-06T04:15:35.441Z,101477.66
2022-10-06T04:16:41.992Z,101481.16
2022-10-06T04:17:44.419Z,101476.84
2022-10-06T04:18:51.780Z,101486.72
2022-10-06T04:19:53.813Z,101488.78
2022-10-06T04:21:00.657Z,101485.31
2022-10-06T04:22:02.871Z,101487.97
2022-10-06T04:23:07.295Z,101484.47
2022-10-06T04:24:11.786Z,101481.97
2022-10-06T04:25:17.649Z,101487.56
2022-10-06T04:26:22.869Z,101483.81
2022-10-06T04:27:29.491Z,101492.94
2022-10-06T04:28:40.723Z,101487.75
2022-10-06T04:29:42.953Z,101497.66
2022-10-06T04:30:56.551Z,101490.66
2022-10-06T04:32:01.011Z,101498.06
2022-10-06T04:33:10.279Z,101496.41
2022-10-06T04:34:13.452Z,101504.44
2022-10-06T04:35:17.873Z,101502.81
2022-10-06T04:36:22.919Z,101496.59
2022-10-06T04:37:28.418Z,101504.84
2022-10-06T04:38:33.604Z,101509.38
2022-10-06T04:39:37.812Z,101503.41
2022-10-06T04:40:40.227Z,101510.63
2022-10-06T04:41:47.442Z,101511.47
2022-10-06T04:43:03.879Z,101527.94
2022-10-06T04:44:07.431Z,101530.63
2022-10-06T04:45:11.252Z,101527.13
2022-10-06T04:46:40.968Z,101530.84
2022-10-06T04:47:41.020Z,101539.94
2022-10-06T04:48:43.957Z,101531.25
2022-10-06T04:49:47.032Z,101534.13
2022-10-06T04:50:54.220Z,101537.84
2022-10-06T04:51:57.631Z,101538.66
2022-10-06T04:53:00.710Z,101537.00
2022-10-06T04:54:03.764Z,101537.84
2022-10-06T04:55:11.113Z,101532.69
2022-10-06T04:56:16.811Z,101546.09
2022-10-06T04:57:18.883Z,101544.44
2022-10-06T04:58:22.012Z,101554.31
2022-10-06T04:59:44.991Z,101556.41
2022-10-06T05:00:50.087Z,101565.47
2022-10-06T05:01:52.328Z,101568.16
2022-10-06T05:02:56.895Z,101567.50
2022-10-06T05:04:00.976Z,101570.19
2022-10-06T05:05:07.813Z,101567.72
2022-10-06T05:06:12.853Z,101575.75
2022-10-06T05:07:16.084Z,101580.31
2022-10-06T05:08:18.165Z,101578.63
2022-10-06T05:09:21.304Z,101578.84
2022-10-06T05:10:28.002Z,101574.50
2022-10-06T05:11:31.858Z,101595.34
2022-10-06T05:12:34.481Z,101583.56
2022-10-06T05:13:38.444Z,101581.09
2022-10-06T05:14:41.108Z,101597.19
2022-10-06T05:15:44.520Z,101591.00
2022-10-06T05:16:47.006Z,101597.38
2022-10-06T05:17:50.711Z,101598.41
2022-10-06T05:18:54.249Z,101603.78
2022-10-06T05:19:57.372Z,101601.31
2022-10-06T05:21:06.363Z,101611.19
2022-10-06T05:22:09.868Z,101612.03
2022-10-06T05:23:12.004Z,101613.25
2022-10-06T05:24:15.021Z,101622.31
2022-10-06T05:25:17.079Z,101626.00
2022-10-06T05:26:22.059Z,101626.22
2022-10-06T05:27:24.382Z,101621.88
2022-10-06T05:28:29.895Z,101628.09
2022-10-06T05:29:34.609Z,101627.25
2022-10-06T05:30:38.950Z,101636.50
2022-10-06T05:31:43.445Z,101628.44
2022-10-06T05:32:50.467Z,101628.44
2022-10-06T05:33:55.798Z,101633.00
2022-10-06T05:34:57.874Z,101629.50
2022-10-06T05:36:02.464Z,101634.84
2022-10-06T05:37:04.606Z,101644.75
2022-10-06T05:38:11.703Z,101642.91
2022-10-06T05:39:13.803Z,101637.53
2022-10-06T05:40:23.814Z,101640.41
2022-10-06T05:41:28.788Z,101632.38
2022-10-06T05:42:33.004Z,101651.97
2022-10-06T05:43:35.653Z,101648.47
2022-10-06T05:44:38.763Z,101654.84
2022-10-06T05:45:54.323Z,101646.19
2022-10-06T05:46:57.474Z,101656.72
2022-10-06T05:47:59.541Z,101663.72
2022-10-06T05:49:07.112Z,101663.72
2022-10-06T05:50:09.867Z,101660.19
2022-10-06T05:51:12.885Z,101661.03
2022-10-06T05:52:15.171Z,101677.97
2022-10-06T05:53:18.243Z,101671.78
2022-10-06T05:54:20.391Z,101684.19
2022-10-06T05:55:23.442Z,101680.47
2022-10-06T05:56:27.272Z,101673.44
2022-10-06T05:57:30.459Z,101685.00
2022-10-06T05:58:32.900Z,101689.53
2022-10-06T05:59:36.218Z,101690.34
2022-10-06T06:00:39.770Z,101689.53
2022-10-06T06:01:44.287Z,101691.19
2022-10-06T06:02:53.733Z,101692.22
2022-10-06T06:03:59.539Z,101700.28
2022-10-06T06:05:05.150Z,101700.28
2022-10-06T06:06:17.147Z,101692.22
2022-10-06T06:07:22.168Z,101704.59
2022-10-06T06:08:24.285Z,101709.97
2022-10-06T06:09:28.864Z,101718.00
2022-10-06T06:10:33.924Z,101713.50
2022-10-06T06:11:38.841Z,101716.97
2022-10-06T06:12:41.159Z,101715.13
2022-10-06T06:14:06.328Z,101713.28
2022-10-06T06:15:27.940Z,101728.34
2022-10-06T06:16:36.948Z,101730.41
2022-10-06T06:17:40.117Z,101719.66
2022-10-06T06:18:43.601Z,101725.03
2022-10-06T06:19:48.090Z,101735.56
2022-10-06T06:20:58.316Z,101743.63
2022-10-06T06:22:00.409Z,101732.06
2022-10-06T06:23:03.476Z,101732.06
2022-10-06T06:24:06.485Z,101736.41
2022-10-06T06:25:12.961Z,101735.41
2022-10-06T06:26:19.006Z,101733.53
2022-10-06T06:27:24.720Z,101749.44
2022-10-06T06:28:30.155Z,101742.41
2022-10-06T06:29:32.639Z,101752.13
2022-10-06T06:30:35.793Z,101749.44
2022-10-06T06:31:43.737Z,101748.44
2022-10-06T06:32:46.189Z,101751.09
2022-10-06T06:33:51.762Z,101759.81
2022-10-06T06:34:53.866Z,101762.28
2022-10-06T06:36:03.289Z,101756.09
2022-10-06T06:37:09.481Z,101758.56
2022-10-06T06:38:15.165Z,101768.47
2022-10-06T06:39:19.910Z,101768.28
2022-10-06T06:40:23.251Z,101776.97
2022-10-06T06:41:29.019Z,101775.97
2022-10-06T06:42:38.346Z,101780.50
2022-10-06T06:44:01.404Z,101776.78
2022-10-06T06:45:26.282Z,101781.94
2022-10-06T06:46:36.556Z,101789.84
2022-10-06T06:47:42.192Z,101793.31
2022-10-06T06:48:47.148Z,101795.81
2022-10-06T06:49:49.230Z,101785.06
2022-10-06T06:51:02.549Z,101789.44
2022-10-06T06:52:08.176Z,101796.25
2022-10-06T06:53:16.296Z,101793.38
2022-10-06T06:54:20.555Z,101795.06
2022-10-06T06:55:26.841Z,101800.22
2022-10-06T06:56:35.090Z,101801.88
2022-10-06T06:57:39.122Z,101799.84
2022-10-06T06:58:47.555Z,101806.84
2022-10-06T06:59:49.558Z,101802.13
2022-10-06T07:00:54.113Z,101816.41
2022-10-06T07:01:57.705Z,101816.19
2022-10-06T07:03:02.424Z,101821.38
2022-10-06T07:04:06.964Z,101823.88
2022-10-06T07:05:12.565Z,101826.34
2022-10-06T07:06:16.309Z,101828.03
2022-10-06T07:07:20.975Z,101827.00
2022-10-06T07:08:23.183Z,101823.31
2022-10-06T07:09:27.210Z,101817.75
2022-10-06T07:10:37.125Z,101832.81
2022-10-06T07:11:41.204Z,101834.31
2022-10-06T07:12:47.063Z,101831.81
2022-10-06T07:13:54.073Z,101845.66
2022-10-06T07:15:14.744Z,101826.25
2022-10-06T07:16:39.935Z,101846.50
2022-10-06T07:18:00.634Z,101839.94
2022-10-06T07:19:25.106Z,101837.84
2022-10-06T07:20:46.578Z,101847.59
2022-10-06T07:22:11.252Z,101847.38
2022-10-06T07:23:35.556Z,101845.53
2022-10-06T07:24:57.920Z,101855.25
2022-10-06T07:26:00.946Z,101849.53
2022-10-06T07:27:03.093Z,101854.69
2022-10-06T07:28:07.776Z,101863.59
2022-10-06T07:29:13.047Z,101862.56
2022-10-06T07:30:19.455Z,101862.19
2022-10-06T07:31:24.707Z,101871.91
2022-10-06T07:32:30.930Z,101869.88
2022-10-06T07:33:33.377Z,101862.63
2022-10-06T07:34:44.137Z,101865.94
2022-10-06T07:35:47.418Z,101880.22
2022-10-06T07:36:54.869Z,101874.44
2022-10-06T07:38:05.989Z,101869.06
2022-10-06T07:39:10.555Z,101875.09
2022-10-06T07:40:14.897Z,101900.09
2022-10-06T07:41:19.795Z,101890.81
2022-10-06T07:42:30.240Z,101879.06
2022-10-06T07:43:33.254Z,101884.03
2022-10-06T07:44:36.923Z,101885.69
2022-10-06T07:45:39.669Z,101892.53
2022-10-06T07:47:06.554Z,101896.69
2022-10-06T07:48:27.708Z,101897.34
2022-10-06T07:49:33.348Z,101898.16
2022-10-06T07:50:39.082Z,101902.31
2022-10-06T07:51:42.985Z,101908.31
2022-10-06T07:52:50.265Z,101914.16
2022-10-06T07:53:53.709Z,101922.00
2022-10-06T07:55:07.042Z,101911.25
2022-10-06T07:56:37.020Z,101917.94
2022-10-06T07:57:39.067Z,101927.44
2022-10-06T07:58:44.128Z,101924.75
2022-10-06T07:59:47.145Z,101921.88
2022-10-06T08:00:49.156Z,101927.88
2022-10-06T08:01:52.982Z,101934.09
2022-10-06T08:02:55.154Z,101925.63
2022-10-06T08:03:58.594Z,101929.97
2022-10-06T08:05:00.631Z,101944.06
2022-10-06T08:06:03.848Z,101933.94
2022-10-06T08:07:10.248Z,101938.09
2022-10-06T08:08:15.294Z,101939.78
2022-10-06T08:09:18.276Z,101937.72
2022-10-06T08:10:20.882Z,101938.53
2022-10-06T08:11:23.906Z,101940.00
2022-10-06T08:12:37.814Z,101949.72
2022-10-06T08:13:43.602Z,101946.03
2022-10-06T08:14:47.223Z,101953.91
2022-10-06T08:15:51.262Z,101943.94
2022-10-06T08:16:54.380Z,101946.47
2022-10-06T08:17:59.423Z,101952.47
2022-10-06T08:19:02.556Z,101949.78
2022-10-06T08:20:06.006Z,101945.03
2022-10-06T08:21:14.723Z,101956.63
2022-10-06T08:22:16.826Z,101965.16
2022-10-06T08:23:21.366Z,101966.78
2022-10-06T08:24:24.416Z,101965.78
2022-10-06T08:25:27.536Z,101974.25
2022-10-06T08:26:31.180Z,101970.56
2022-10-06T08:27:35.612Z,101968.53
2022-10-06T08:28:40.572Z,101986.75
2022-10-06T08:29:42.677Z,101981.16
2022-10-06T08:30:45.702Z,101984.50
2022-10-06T08:31:48.783Z,101985.94
2022-10-06T08:32:50.901Z,101980.19
2022-10-06T08:33:57.064Z,101989.09
2022-10-06T08:35:00.136Z,101989.53
2022-10-06T08:36:03.978Z,101994.69
2022-10-06T08:37:19.804Z,102003.41
2022-10-06T08:38:24.820Z,101997.63
2022-10-06T08:39:26.821Z,101999.31
2022-10-06T08:40:30.477Z,101990.19
2022-10-06T08:41:39.892Z,101995.38
2022-10-06T08:42:45.724Z,102007.63
2022-10-06T08:43:53.675Z,101999.38
2022-10-06T08:45:00.696Z,102004.16
2022-10-06T08:46:05.457Z,102002.31
2022-10-06T08:47:14.576Z,102008.13
2022-10-06T08:48:21.391Z,101996.13
2022-10-06T08:49:26.949Z,102001.94
2022-10-06T08:50:32.997Z,102011.50
2022-10-06T08:51:55.944Z,102001.97
2022-10-06T08:53:10.850Z,102005.31
2022-10-06T08:54:25.210Z,102009.44
2022-10-06T08:55:35.459Z,102011.78
2022-10-06T08:56:52.017Z,102007.00
2022-10-06T08:59:16.240Z,102009.31
2022-10-06T09:00:21.491Z,102008.91
2022-10-06T09:01:28.029Z,102026.72
2022-10-06T09:02:33.175Z,102030.88
2022-10-06T09:03:37.955Z,102029.84
2022-10-06T09:04:40.048Z,102024.88
2022-10-06T09:05:43.104Z,102022.81
2022-10-06T09:06:51.989Z,102030.72
2022-10-06T09:08:16.729Z,102024.06
2022-10-06T09:09:34.177Z,102036.53
2022-10-06T09:10:44.388Z,102038.81
2022-10-06T09:11:56.392Z,102030.72
2022-10-06T09:13:04.860Z,102043.16
2022-10-06T09:14:14.820Z,102044.84
2022-10-06T09:15:30.152Z,102045.47
2022-10-06T09:16:40.543Z,102046.91
2022-10-06T09:17:50.212Z,102052.94
2022-10-06T09:19:08.660Z,102045.50
2022-10-06T09:20:20.394Z,102067.47
2022-10-06T09:21:30.286Z,102070.78
2022-10-06T09:22:33.605Z,102060.66
2022-10-06T09:23:49.209Z,102056.94
2022-10-06T09:24:58.419Z,102064.81
2022-10-06T09:26:02.682Z,102081.63
2022-10-06T09:27:18.611Z,102072.28
2022-10-06T09:28:22.257Z,102071.25
2022-10-06T09:29:31.928Z,102077.25
2022-10-06T09:30:33.957Z,102086.81
2022-10-06T09:31:39.234Z,102083.94
2022-10-06T09:32:48.281Z,102081.88
2022-10-06T09:33:55.312Z,102087.88
2022-10-06T09:34:59.845Z,102077.09
2022-10-06T09:36:06.430Z,102089.53
2022-10-06T09:37:11.167Z,102095.56
2022-10-06T09:38:14.223Z,102087.06
2022-10-06T09:39:24.735Z,102087.72
2022-10-06T09:40:37.481Z,102094.75
2022-10-06T09:41:45.728Z,102097.25
2022-10-06T09:42:47.966Z,102092.28
2022-10-06T09:43:57.971Z,102098.94
2022-10-06T09:45:03.882Z,102096.03
2022-10-06T09:46:20.989Z,102091.09
2022-10-06T09:47:39.040Z,102098.16
2022-10-06T09:48:42.156Z,102100.63
2022-10-06T09:49:44.217Z,102097.75
2022-10-06T09:51:07.591Z,102094.84
2022-10-06T09:52:15.107Z,102097.97
2022-10-06T09:53:17.222Z,102095.69
2022-10-06T09:54:24.457Z,102090.72
2022-10-06T09:55:30.068Z,102102.78
2022-10-06T09:56:36.270Z,102092.63
2022-10-06T09:57:39.191Z,102091.16
2022-10-06T09:58:56.375Z,102100.50
2022-10-06T10:00:00.080Z,102094.06
2022-10-06T10:01:05.662Z,102103.63
2022-10-06T10:02:28.098Z,102102.38
2022-10-06T10:04:02.077Z,102109.47
2022-10-06T10:05:21.001Z,102103.22
2022-10-06T10:06:27.617Z,102105.28
2022-10-06T10:07:33.234Z,102116.06
2022-10-06T10:09:38.365Z,102123.53
2022-10-06T10:10:42.835Z,102118.13
2022-10-06T10:12:04.011Z,102123.34
2022-10-06T10:13:21.604Z,102124.81
2022-10-06T10:14:23.757Z,102122.53
2022-10-06T10:15:31.155Z,102126.47
2022-10-06T10:16:35.679Z,102115.69
2022-10-06T10:17:47.939Z,102122.13
2022-10-06T10:18:52.668Z,102141.03
2022-10-06T10:19:55.484Z,102118.63
2022-10-06T10:21:00.573Z,102124.41
2022-10-06T10:22:03.904Z,102135.03
2022-10-06T10:23:30.123Z,102131.28
2022-10-06T10:24:53.589Z,102125.47
2022-10-06T10:26:28.235Z,102131.06
2022-10-06T10:27:39.916Z,102130.66
2022-10-06T10:29:07.156Z,102141.88
2022-10-06T10:30:10.713Z,102139.59
2022-10-06T10:31:23.665Z,102139.16
2022-10-06T10:32:40.591Z,102135.44
2022-10-06T10:34:05.042Z,102150.81
2022-10-06T10:35:21.236Z,102137.31
2022-10-06T10:36:34.348Z,102138.94
2022-10-06T10:37:43.338Z,102146.88
2022-10-06T10:38:48.514Z,102145.81
2022-10-06T10:39:57.447Z,102150.81
2022-10-06T10:41:04.832Z,102160.38
2022-10-06T10:42:17.851Z,102159.75
2022-10-06T10:43:29.944Z,102153.72
2022-10-06T10:44:35.482Z,102151.88
2022-10-06T10:45:45.001Z,102146.66
2022-10-06T10:46:52.829Z,102156.84
2022-10-06T10:47:56.797Z,102159.94
2022-10-06T10:49:05.243Z,102161.22
2022-10-06T10:50:20.055Z,102162.63
2022-10-06T10:51:28.593Z,102167.66
2022-10-06T10:52:34.667Z,102160.13
2022-10-06T10:53:47.342Z,102166.78
2022-10-06T10:55:01.644Z,102163.44
2022-10-06T10:56:08.645Z,102177.16
2022-10-06T10:57:17.252Z,102164.06
2022-10-06T10:58:24.873Z,102167.16
2022-10-06T10:59:35.222Z,102163.41
2022-10-06T11:00:43.833Z,102168.41
2022-10-06T11:01:51.181Z,102163.81
2022-10-06T11:02:56.711Z,102171.34
2022-10-06T11:04:00.954Z,102172.56
2022-10-06T11:05:13.516Z,102169.03
2022-10-06T11:06:40.686Z,102169.69
2022-10-06T11:07:51.678Z,102182.78
2022-10-06T11:09:00.739Z,102176.75
2022-10-06T11:10:13.420Z,102175.09
2022-10-06T11:11:22.431Z,102177.19
2022-10-06T11:12:40.666Z,102166.38
2022-10-06T11:13:48.130Z,102178.84
2022-10-06T11:14:59.804Z,102171.78
2022-10-06T11:16:29.842Z,102176.16
2022-10-06T11:17:44.507Z,102183.63
2022-10-06T11:18:59.112Z,102188.19
2022-10-06T11:20:12.439Z,102171.56
2022-10-06T11:21:21.180Z,102178.84
2022-10-06T11:22:33.052Z,102185.50
2022-10-06T11:23:48.096Z,102184.25
2022-10-06T11:25:02.009Z,102175.53
2022-10-06T11:26:14.926Z,102166.41
2022-10-06T11:27:28.577Z,102174.31
2022-10-06T11:28:43.117Z,102183.41
2022-10-06T11:29:59.212Z,102175.31
2022-10-06T11:31:11.327Z,102185.69
2022-10-06T11:32:26.494Z,102185.06
2022-10-06T11:33:35.918Z,102188.59
2022-10-06T11:34:40.019Z,102185.06
2022-10-06T11:35:45.324Z,102183.41
2022-10-06T11:36:55.685Z,102181.94
2022-10-06T11:38:02.329Z,102185.91
2022-10-06T11:39:17.593Z,102183.63
2022-10-06T11:40:36.015Z,102183.63
2022-10-06T11:41:43.633Z,102186.31
2022-10-06T11:42:53.754Z,102184.03
2022-10-06T11:44:06.387Z,102192.13
2022-10-06T11:45:14.750Z,102194.84
2022-10-06T11:46:31.764Z,102200.03
2022-10-06T11:47:45.098Z,102203.53
2022-10-06T11:48:48.194Z,102194.63
2022-10-06T11:49:52.327Z,102195.44
2022-10-06T11:50:56.525Z,102197.91
2022-10-06T11:52:37.929Z,102192.13
2022-10-06T11:53:41.531Z,102202.94
2022-10-06T11:54:47.842Z,102215.59
2022-10-06T11:56:46.669Z,102191.94
2022-10-06T11:59:42.720Z,102201.53
2022-10-06T12:00:47.367Z,102199.19
2022-10-06T12:01:56.729Z,102211.72
2022-10-06T12:03:38.204Z,102211.47
2022-10-06T12:04:41.284Z,102203.78
2022-10-06T12:05:56.114Z,102212.91
2022-10-06T12:07:01.506Z,102202.94
2022-10-06T12:08:13.029Z,102208.78
2022-10-06T12:09:41.352Z,102224.75
2022-10-06T12:10:51.744Z,102193.00
2022-10-06T12:11:55.054Z,102215.03
2022-10-06T12:13:21.166Z,102202.75
2022-10-06T12:17:49.488Z,102212.13
2022-10-06T12:19:12.058Z,102200.66
2022-10-06T12:20:18.825Z,102199.22
2022-10-06T12:21:40.139Z,102208.16
2022-10-06T12:22:49.054Z,102205.66
2022-10-06T12:24:05.522Z,102211.25
2022-10-06T12:25:19.683Z,102213.31
2022-10-06T12:26:36.134Z,102213.94
2022-10-06T12:27:55.190Z,102206.88
2022-10-06T12:29:02.543Z,102202.06
2022-10-06T12:30:18.402Z,102211.84
2022-10-06T12:31:47.432Z,102206.88
2022-10-06T12:32:54.312Z,102202.06
2022-10-06T12:33:56.666Z,102212.66
2022-10-06T12:35:09.825Z,102208.31
2022-10-06T12:36:20.043Z,102207.69
2022-10-06T12:37:41.585Z,102211.22
2022-10-06T12:39:02.137Z,102208.53
2022-10-06T12:40:47.010Z,102205.38
2022-10-06T12:42:00.938Z,102205.59
2022-10-06T12:43:35.165Z,102211.19
2022-10-06T12:44:40.990Z,102215.94
2022-10-06T12:45:46.226Z,102213.66
2022-10-06T12:46:52.672Z,102211.56
2022-10-06T12:47:55.734Z,102213.03
2022-10-06T12:49:13.456Z,102212.81
2022-10-06T12:50:21.796Z,102219.03
2022-10-06T12:51:31.089Z,102224.47
2022-10-06T12:52:51.725Z,102217.78